Time;durP1;ratioP1;P1;durP2;ratioP2;P2;SDS_P1;SDS_P2;PMS_P1;PMS_P2;Temp;Humidity;BMP_temperature;BMP_pressure;BME280_temperature;BME280_humidity;BME280_pressure;Samples;Min_cycle;Max_cycle;Signal;HPM_P1;HPM_P2
2023/04/09 00:00:12;;;;;;;30.83;12.20;;;;;;;-145.69;100.00;52472.13;5079706;28;20230;-85
2023/04/09 00:02:38;;;;;;;29.27;13.23;;;;;;;-145.69;100.00;52464.19;5080420;28;20199;-85
2023/04/09 00:05:06;;;;;;;28.53;13.20;;;;;;;-145.69;100.00;52468.16;5080293;28;20244;-84
2023/04/09 00:07:35;;;;;;;24.93;12.27;;;;;;;-145.69;100.00;52480.03;5079245;28;20206;-84
2023/04/09 00:10:02;;;;;;;21.83;11.17;;;;;;;-145.69;100.00;52470.13;5078929;28;20214;-84
2023/04/09 00:12:30;;;;;;;24.10;11.80;;;;;;;-145.69;100.00;52460.22;5078283;28;20203;-84
2023/04/09 00:14:56;;;;;;;31.30;15.10;;;;;;;-145.69;100.00;52474.09;5078467;28;20234;-84
2023/04/09 00:17:25;;;;;;;33.43;15.33;;;;;;;-145.69;100.00;52503.81;5078497;28;20202;-84
2023/04/09 00:19:54;;;;;;;31.60;15.17;;;;;;;-145.69;100.00;52476.06;5078415;28;20229;-84
2023/04/09 00:22:23;;;;;;;45.33;18.27;;;;;;;-145.69;100.00;52487.97;5077906;28;20646;-84
2023/04/09 00:24:56;;;;;;;40.10;17.40;;;;;;;-145.69;100.00;52448.34;5078683;28;20676;-84
2023/04/09 00:27:22;;;;;;;53.87;21.47;;;;;;;-145.69;100.00;52495.88;5078440;28;20195;-84
2023/04/09 00:29:53;;;;;;;47.20;19.13;;;;;;;-145.69;100.00;52491.91;5080111;28;20187;-85
2023/04/09 00:32:22;;;;;;;37.87;16.27;;;;;;;-145.69;100.00;52478.06;5080824;28;20206;-85
2023/04/09 00:34:50;;;;;;;33.53;14.27;;;;;;;-145.69;100.00;52466.16;5080026;28;20225;-84
2023/04/09 00:37:16;;;;;;;25.90;13.37;;;;;;;-145.69;100.00;52485.97;5079410;28;20225;-84
2023/04/09 00:39:43;;;;;;;25.00;12.33;;;;;;;-145.69;100.00;52480.03;5079421;28;20203;-84
2023/04/09 00:42:09;;;;;;;29.40;13.60;;;;;;;-145.69;100.00;52480.03;5079689;28;20207;-84
2023/04/09 00:44:36;;;;;;;30.33;13.60;;;;;;;-145.69;100.00;52474.09;5079777;28;20234;-84
2023/04/09 00:47:03;;;;;;;31.73;14.33;;;;;;;-145.69;100.00;52495.88;5080560;28;20201;-84
2023/04/09 00:49:30;;;;;;;28.43;13.73;;;;;;;-145.69;100.00;52472.13;5081158;28;20198;-84
2023/04/09 00:51:57;;;;;;;33.43;15.27;;;;;;;-145.69;100.00;52472.13;5080784;28;20558;-84
2023/04/09 00:54:23;;;;;;;28.70;13.73;;;;;;;-145.69;100.00;52460.22;5079806;28;20195;-84
2023/04/09 00:56:51;;;;;;;31.07;13.47;;;;;;;-145.69;100.00;52505.78;5081740;28;20221;-84
2023/04/09 00:59:17;;;;;;;33.90;14.60;;;;;;;-145.69;100.00;52458.25;5081108;28;20206;-84
2023/04/09 01:01:49;;;;;;;38.03;15.87;;;;;;;-145.69;100.00;52476.06;5080549;28;20852;-84
2023/04/09 01:04:21;;;;;;;34.00;15.00;;;;;;;-145.69;100.00;52460.22;5079940;28;20206;-84
2023/04/09 01:06:52;;;;;;;38.63;15.70;;;;;;;-145.69;100.00;52464.19;5079882;28;20199;-84
2023/04/09 01:09:24;;;;;;;30.00;14.33;;;;;;;-145.69;100.00;52501.81;5080398;28;20213;-84
2023/04/09 01:12:02;;;;;;;38.00;16.00;;;;;;;-145.69;100.00;52482.00;5079014;28;20203;-84
2023/04/09 01:14:35;;;;;;;40.80;17.90;;;;;;;-145.69;100.00;52468.16;5077378;28;20199;-84
2023/04/09 01:17:12;;;;;;;37.73;17.63;;;;;;;-145.69;100.00;52474.09;5074656;28;20202;-84
2023/04/09 01:19:47;;;;;;;35.60;17.03;;;;;;;-145.69;100.00;52476.06;5074601;28;20206;-84
2023/04/09 01:22:34;;;;;;;37.17;16.43;;;;;;;-145.69;100.00;52509.75;5074054;28;20209;-84
2023/04/09 01:25:07;;;;;;;37.43;16.73;;;;;;;-145.69;100.00;52456.28;5075088;28;20199;-84
2023/04/09 01:27:44;;;;;;;35.97;16.27;;;;;;;-145.69;100.00;52472.13;5075153;28;20285;-84
2023/04/09 01:30:16;;;;;;;34.80;15.30;;;;;;;-145.69;100.00;52468.16;5075119;28;20197;-84
2023/04/09 01:32:45;;;;;;;37.27;16.03;;;;;;;-145.69;100.00;52476.06;5075318;28;20199;-83
2023/04/09 01:35:14;;;;;;;40.73;16.90;;;;;;;-145.69;100.00;52468.16;5074902;28;20198;-83
2023/04/09 01:37:41;;;;;;;37.77;16.73;;;;;;;-145.69;100.00;52476.06;5075101;28;20195;-83
2023/04/09 01:40:10;;;;;;;37.83;18.00;;;;;;;-145.69;100.00;52497.84;5075442;28;20231;-84
2023/04/09 01:42:37;;;;;;;47.67;19.73;;;;;;;-145.69;100.00;52487.97;5075199;28;20573;-83
2023/04/09 01:45:06;;;;;;;49.53;19.87;;;;;;;-145.69;100.00;52491.91;5075717;28;20199;-83
2023/04/09 01:47:38;;;;;;;44.03;20.87;;;;;;;-145.69;100.00;52484.00;5075889;28;20225;-82
2023/04/09 01:50:05;;;;;;;52.33;22.03;;;;;;;-145.69;100.00;52472.13;5075744;28;20641;-82
2023/04/09 01:52:32;;;;;;;47.63;20.97;;;;;;;-145.69;100.00;52458.25;5077820;28;20209;-82
2023/04/09 01:54:58;;;;;;;43.80;18.70;;;;;;;-145.69;100.00;52444.38;5076494;28;20206;-83
2023/04/09 01:57:25;;;;;;;40.73;18.23;;;;;;;-145.69;100.00;52480.03;5076487;28;20203;-82
2023/04/09 01:59:51;;;;;;;35.23;16.47;;;;;;;-145.69;100.00;52487.97;5076648;28;20278;-82
2023/04/09 02:02:26;;;;;;;40.33;18.33;;;;;;;-145.69;100.00;52472.13;5076377;28;20234;-82
2023/04/09 02:05:02;;;;;;;37.70;16.27;;;;;;;-145.69;100.00;52485.97;5076994;28;20209;-82
2023/04/09 02:07:40;;;;;;;39.37;18.47;;;;;;;-145.69;100.00;52495.88;5060235;28;20203;-83
2023/04/09 02:10:10;;;;;;;44.23;18.40;;;;;;;-145.69;100.00;52480.03;5060461;28;20206;-83
2023/04/09 02:12:47;;;;;;;46.17;20.00;;;;;;;-145.69;100.00;52474.09;5060262;28;20199;-83
2023/04/09 02:15:17;;;;;;;37.13;17.40;;;;;;;-145.69;100.00;52466.16;5059820;28;20203;-83
2023/04/09 02:17:44;;;;;;;38.90;17.83;;;;;;;-145.69;100.00;52424.59;5069279;28;20244;-83
2023/04/09 02:20:18;;;;;;;42.40;19.17;;;;;;;-145.69;100.00;52499.84;5082337;28;20286;-83
2023/04/09 02:22:45;;;;;;;39.03;18.47;;;;;;;-145.69;100.00;52468.16;5081957;28;20680;-83
2023/04/09 02:25:12;;;;;;;42.37;19.93;;;;;;;-145.69;100.00;52480.03;5080879;28;20211;-83
2023/04/09 02:27:38;;;;;;;47.13;20.70;;;;;;;-145.69;100.00;52476.06;5082101;28;20210;-83
2023/04/09 02:30:08;;;;;;;51.40;20.77;;;;;;;-145.69;100.00;52468.16;5078790;28;20199;-83
2023/04/09 02:32:35;;;;;;;42.67;19.40;;;;;;;-145.69;100.00;52444.38;5079967;28;20202;-82
2023/04/09 02:35:02;;;;;;;40.67;18.37;;;;;;;-145.69;100.00;52460.22;5080914;28;20203;-83
2023/04/09 02:37:30;;;;;;;41.37;18.20;;;;;;;-145.69;100.00;52470.13;5080516;28;20199;-83
2023/04/09 02:39:56;;;;;;;43.23;19.80;;;;;;;-145.69;100.00;52487.97;5080812;28;20202;-82
2023/04/09 02:42:23;;;;;;;44.90;19.70;;;;;;;-145.69;100.00;52503.81;5080350;28;20230;-81
2023/04/09 02:44:49;;;;;;;47.13;19.27;;;;;;;-145.69;100.00;52460.22;5080637;28;20218;-83
2023/04/09 02:47:16;;;;;;;44.07;20.53;;;;;;;-145.69;100.00;52480.03;5080580;28;20207;-83
2023/04/09 02:49:42;;;;;;;46.23;19.87;;;;;;;-145.69;100.00;52440.44;5081474;28;20202;-83
2023/04/09 02:52:09;;;;;;;50.63;21.47;;;;;;;-145.69;100.00;52482.00;5081771;28;20207;-83
2023/04/09 02:54:37;;;;;;;48.10;21.47;;;;;;;-145.69;100.00;52491.91;5081057;28;20310;-82
2023/04/09 02:57:04;;;;;;;53.60;20.90;;;;;;;-145.69;100.00;52470.13;5082107;28;20198;-83
2023/04/09 02:59:31;;;;;;;51.77;21.23;;;;;;;-145.69;100.00;52503.81;5081969;28;20232;-83
2023/04/09 03:02:00;;;;;;;51.90;21.07;;;;;;;-145.69;100.00;52482.00;5081731;28;20636;-83
2023/04/09 03:04:26;;;;;;;49.63;20.93;;;;;;;-145.69;100.00;52464.19;5081478;28;20199;-83
2023/04/09 03:06:53;;;;;;;52.37;20.77;;;;;;;-145.69;100.00;52478.06;5081566;28;20206;-83
2023/04/09 03:09:19;;;;;;;48.00;19.77;;;;;;;-145.69;100.00;52482.00;5081188;28;20217;-83
2023/04/09 03:11:47;;;;;;;51.40;19.83;;;;;;;-145.69;100.00;52464.19;5081211;28;20202;-83
2023/04/09 03:14:14;;;;;;;48.87;18.53;;;;;;;-145.69;100.00;52503.81;5081242;28;20290;-83
2023/04/09 03:16:41;;;;;;;46.50;19.70;;;;;;;-145.69;100.00;52462.22;5080834;28;20226;-83
2023/04/09 03:19:07;;;;;;;48.37;19.17;;;;;;;-145.69;100.00;52515.69;5078195;28;20199;-83
2023/04/09 03:21:34;;;;;;;46.53;18.73;;;;;;;-145.69;100.00;52505.78;5078588;28;20230;-83
2023/04/09 03:24:01;;;;;;;43.77;18.87;;;;;;;-145.69;100.00;52487.97;5079202;28;20261;-83
2023/04/09 03:26:27;;;;;;;48.00;18.67;;;;;;;-145.69;100.00;52497.84;5078350;28;20273;-83
2023/04/09 03:28:55;;;;;;;48.40;19.47;;;;;;;-145.69;100.00;52478.06;5078518;28;20207;-82
2023/04/09 03:31:21;;;;;;;48.63;19.20;;;;;;;-145.69;100.00;52456.28;5078328;28;20203;-83
2023/04/09 03:33:48;;;;;;;44.67;17.80;;;;;;;-145.69;100.00;52511.72;5078236;28;20222;-83
2023/04/09 03:36:14;;;;;;;40.73;16.67;;;;;;;-145.69;100.00;52515.69;5078922;28;20285;-82
2023/04/09 03:38:41;;;;;;;38.77;16.47;;;;;;;-145.69;100.00;52468.16;5078163;28;20213;-83
2023/04/09 03:41:07;;;;;;;47.97;19.30;;;;;;;-145.69;100.00;52531.53;5078262;28;20716;-83
2023/04/09 03:43:34;;;;;;;50.30;19.20;;;;;;;-145.69;100.00;52480.03;5077624;28;20330;-82
2023/04/09 03:46:02;;;;;;;56.70;24.73;;;;;;;-145.69;100.00;52484.00;5077105;28;20796;-83
2023/04/09 03:48:28;;;;;;;49.70;20.10;;;;;;;-145.69;100.00;52515.69;5077666;28;20202;-83
2023/04/09 03:50:55;;;;;;;45.13;18.37;;;;;;;-145.69;100.00;52446.38;5077623;28;20209;-83
2023/04/09 03:53:21;;;;;;;45.47;18.13;;;;;;;-145.69;100.00;52515.69;5077797;28;20673;-83
2023/04/09 03:55:48;;;;;;;45.57;17.57;;;;;;;-145.69;100.00;52495.88;5077643;28;20198;-83
2023/04/09 03:58:14;;;;;;;46.13;16.60;;;;;;;-145.69;100.00;52511.72;5077234;28;20202;-83
2023/04/09 04:00:42;;;;;;;51.50;18.90;;;;;;;-145.69;100.00;52509.75;5076912;28;20248;-83
2023/04/09 04:03:13;;;;;;;49.20;18.30;;;;;;;-145.69;100.00;52480.03;5077671;28;20195;-83
2023/04/09 04:05:39;;;;;;;53.43;19.60;;;;;;;-145.69;100.00;52487.97;5077807;28;20222;-83
2023/04/09 04:08:06;;;;;;;59.20;20.60;;;;;;;-145.69;100.00;52519.63;5078090;28;20210;-83
2023/04/09 04:10:33;;;;;;;60.40;20.17;;;;;;;-145.69;100.00;52497.84;5079585;28;20199;-84
2023/04/09 04:13:00;;;;;;;60.97;20.40;;;;;;;-145.69;100.00;52495.88;5081247;28;20202;-84
2023/04/09 04:15:27;;;;;;;67.63;22.00;;;;;;;-145.69;100.00;52497.84;5081351;28;20233;-84
2023/04/09 04:17:53;;;;;;;72.87;23.00;;;;;;;-145.69;100.00;52468.16;5079564;28;20203;-83
2023/04/09 04:20:21;;;;;;;77.23;23.80;;;;;;;-145.69;100.00;52480.03;5079788;28;20206;-84
2023/04/09 04:22:48;;;;;;;71.70;23.23;;;;;;;-145.69;100.00;52499.84;5077672;28;20230;-83
2023/04/09 04:25:14;;;;;;;76.13;23.40;;;;;;;-145.69;100.00;52491.91;5077705;28;20209;-83
2023/04/09 04:27:41;;;;;;;65.47;21.03;;;;;;;-145.69;100.00;52523.59;5066951;28;20191;-83
2023/04/09 04:30:09;;;;;;;69.47;22.70;;;;;;;-145.69;100.00;52505.78;5057449;28;20206;-83
2023/04/09 04:32:35;;;;;;;54.47;18.97;;;;;;;-145.69;100.00;52484.00;5058611;28;20207;-82
2023/04/09 04:35:02;;;;;;;48.50;18.43;;;;;;;-145.69;100.00;52505.78;5058340;28;20207;-83
2023/04/09 04:37:29;;;;;;;49.23;18.20;;;;;;;-145.69;100.00;52493.91;5057551;28;20204;-82
2023/04/09 04:39:56;;;;;;;51.53;18.57;;;;;;;-145.69;100.00;52511.72;5057975;28;20223;-83
2023/04/09 04:42:23;;;;;;;47.83;19.20;;;;;;;-145.69;100.00;52495.88;5057322;28;20262;-82
2023/04/09 04:44:49;;;;;;;54.57;19.70;;;;;;;-145.69;100.00;52519.63;5057507;28;20206;-83
2023/04/09 04:47:16;;;;;;;55.97;19.63;;;;;;;-145.69;100.00;52491.91;5057342;28;20658;-83
2023/04/09 04:49:42;;;;;;;54.73;19.13;;;;;;;-145.69;100.00;52507.75;5057914;28;20204;-83
2023/04/09 04:52:09;;;;;;;65.40;21.37;;;;;;;-145.69;100.00;52515.69;5058045;28;20203;-83
2023/04/09 04:54:36;;;;;;;53.40;20.03;;;;;;;-145.69;100.00;52507.75;5057763;28;20297;-82
2023/04/09 04:57:03;;;;;;;52.67;19.13;;;;;;;-145.69;100.00;52503.81;5057843;28;20206;-83
2023/04/09 04:59:30;;;;;;;50.63;18.37;;;;;;;-145.69;100.00;52491.91;5057679;28;20199;-83
2023/04/09 05:01:57;;;;;;;55.10;19.13;;;;;;;-145.69;100.00;52501.81;5057956;28;20231;-84
2023/04/09 05:04:24;;;;;;;50.83;18.17;;;;;;;-145.69;100.00;52482.00;5058956;28;20294;-84
2023/04/09 05:06:50;;;;;;;55.07;19.30;;;;;;;-145.69;100.00;52472.13;5059578;28;20574;-83
2023/04/09 05:09:17;;;;;;;47.37;17.33;;;;;;;-145.69;100.00;52497.84;5075159;28;20193;-84
2023/04/09 05:11:45;;;;;;;47.73;18.30;;;;;;;-145.69;100.00;52489.94;5100389;28;20648;-84
2023/04/09 05:14:12;;;;;;;45.70;17.77;;;;;;;-145.69;100.00;52499.84;5099973;28;20293;-83
2023/04/09 05:16:38;;;;;;;51.67;18.77;;;;;;;-145.69;100.00;52513.69;5100261;28;20270;-84
2023/04/09 05:19:05;;;;;;;54.03;19.30;;;;;;;-145.69;100.00;52487.97;5100227;28;20194;-83
2023/04/09 05:21:31;;;;;;;51.40;18.37;;;;;;;-145.69;100.00;52513.69;5100063;28;20225;-84
2023/04/09 05:23:58;;;;;;;57.47;21.00;;;;;;;-145.69;100.00;52485.97;5099511;28;20556;-84
2023/04/09 05:26:25;;;;;;;54.47;18.70;;;;;;;-145.69;100.00;52511.72;5099168;28;20197;-84
2023/04/09 05:28:53;;;;;;;56.13;21.50;;;;;;;-145.69;100.00;52485.97;5099889;28;20217;-84
2023/04/09 05:31:20;;;;;;;58.07;20.90;;;;;;;-145.69;100.00;52491.91;5099718;28;20194;-84
2023/04/09 05:33:46;;;;;;;49.63;18.47;;;;;;;-145.69;100.00;52493.91;5099241;28;20202;-83
2023/04/09 05:36:16;;;;;;;44.73;17.57;;;;;;;-145.69;100.00;52472.13;5098777;28;20202;-84
2023/04/09 05:38:43;;;;;;;49.93;18.73;;;;;;;-145.69;100.00;52495.88;5097540;28;20202;-83
2023/04/09 05:41:09;;;;;;;47.30;18.87;;;;;;;-145.69;100.00;52503.81;5099716;28;20208;-83
2023/04/09 05:43:36;;;;;;;47.83;18.07;;;;;;;-145.69;100.00;52535.47;5100209;28;20740;-84
2023/04/09 05:46:06;;;;;;;45.50;17.47;;;;;;;-145.69;100.00;52452.31;5098645;28;20256;-83
2023/04/09 05:48:35;;;;;;;46.50;19.63;;;;;;;-145.69;100.00;52458.25;5097909;28;20676;-83
2023/04/09 05:51:01;;;;;;;40.63;17.63;;;;;;;-145.69;100.00;52499.84;5097491;28;20198;-83
2023/04/09 05:53:28;;;;;;;39.47;17.43;;;;;;;-145.69;100.00;52476.06;5097312;28;20252;-83
2023/04/09 05:55:54;;;;;;;42.60;18.60;;;;;;;-145.69;100.00;52484.00;5097209;28;20202;-83
2023/04/09 05:58:21;;;;;;;46.07;19.77;;;;;;;-145.69;100.00;52462.22;5098134;28;20217;-84
2023/04/09 06:00:47;;;;;;;45.00;19.33;;;;;;;-145.69;100.00;52484.00;5098555;28;20223;-83
2023/04/09 06:03:15;;;;;;;44.37;19.77;;;;;;;-145.69;100.00;52450.31;5098780;28;20584;-83
2023/04/09 06:05:42;;;;;;;44.50;19.43;;;;;;;-145.69;100.00;52507.75;5081729;28;20206;-83
2023/04/09 06:08:08;;;;;;;41.53;19.60;;;;;;;-145.69;100.00;52456.28;5078431;28;20202;-83
2023/04/09 06:10:35;;;;;;;41.40;18.77;;;;;;;-145.69;100.00;52458.25;5079943;28;20225;-84
2023/04/09 06:13:01;;;;;;;33.83;17.03;;;;;;;-145.69;100.00;52456.28;5080198;28;20205;-83
2023/04/09 06:15:28;;;;;;;37.67;17.73;;;;;;;-145.69;100.00;52472.13;5081556;28;20612;-84
2023/04/09 06:17:54;;;;;;;35.13;16.80;;;;;;;-145.69;100.00;52468.16;5081269;28;20199;-84
2023/04/09 06:20:22;;;;;;;32.83;16.27;;;;;;;-145.69;100.00;52452.31;5074595;28;20199;-84
2023/04/09 06:22:49;;;;;;;30.90;15.70;;;;;;;-145.69;100.00;52503.81;5062839;28;20250;-84
2023/04/09 06:25:15;;;;;;;36.33;17.47;;;;;;;-145.69;100.00;52456.28;5075629;28;20711;-83
2023/04/09 06:27:42;;;;;;;33.23;15.50;;;;;;;-145.69;100.00;52472.13;5081295;28;20207;-84
2023/04/09 06:30:10;;;;;;;33.03;16.20;;;;;;;-145.69;100.00;52476.06;5081687;28;20199;-83
2023/04/09 06:32:37;;;;;;;33.53;16.27;;;;;;;-145.69;100.00;52480.03;5081725;28;20202;-83
2023/04/09 06:35:04;;;;;;;32.90;15.83;;;;;;;-145.69;100.00;52476.06;5084373;28;20262;-84
2023/04/09 06:37:32;;;;;;;32.97;16.87;;;;;;;-145.69;100.00;52495.88;5084363;28;20714;-85
2023/04/09 06:39:58;;;;;;;32.13;15.77;;;;;;;-145.69;100.00;52472.13;5085995;28;20697;-84
2023/04/09 06:42:25;;;;;;;32.83;16.40;;;;;;;-145.69;100.00;52456.28;5086432;28;20705;-83
2023/04/09 06:44:55;;;;;;;35.37;16.47;;;;;;;-145.69;100.00;52495.88;5083687;28;20606;-84
2023/04/09 06:47:21;;;;;;;31.70;15.80;;;;;;;-145.69;100.00;52476.06;5082462;28;20199;-83
2023/04/09 06:49:48;;;;;;;29.10;14.73;;;;;;;-145.69;100.00;52491.91;5077953;28;20194;-83
2023/04/09 06:52:14;;;;;;;31.23;14.80;;;;;;;-145.69;100.00;52495.88;5078876;28;20206;-84
2023/04/09 06:54:42;;;;;;;33.43;15.23;;;;;;;-145.69;100.00;52468.16;5083085;28;20199;-84
2023/04/09 06:57:09;;;;;;;28.87;14.90;;;;;;;-145.69;100.00;52408.75;5082454;28;20278;-84
2023/04/09 06:59:35;;;;;;;30.97;14.87;;;;;;;-145.69;100.00;52468.16;5082585;28;20198;-84
2023/04/09 07:02:01;;;;;;;28.43;14.13;;;;;;;-145.69;100.00;52468.16;5081219;28;20218;-84
2023/04/09 07:04:28;;;;;;;29.07;14.13;;;;;;;-145.69;100.00;52507.75;5081226;28;20207;-84
2023/04/09 07:06:55;;;;;;;31.03;14.87;;;;;;;-145.69;100.00;52474.09;5082063;28;20202;-84
2023/04/09 07:09:22;;;;;;;26.23;13.23;;;;;;;-145.69;100.00;52470.13;5079822;28;20272;-84
2023/04/09 07:11:50;;;;;;;29.10;14.37;;;;;;;-145.69;100.00;52474.09;5079585;28;20226;-84
2023/04/09 07:14:16;;;;;;;27.33;14.43;;;;;;;-145.69;100.00;52452.31;5079397;28;20199;-83
2023/04/09 07:16:45;;;;;;;25.47;13.37;;;;;;;-145.69;100.00;52440.44;5079394;28;20206;-83
2023/04/09 07:19:11;;;;;;;24.13;13.20;;;;;;;-145.69;100.00;52482.00;5081491;28;20198;-82
2023/04/09 07:21:38;;;;;;;23.37;13.00;;;;;;;-145.69;100.00;52474.09;5075514;28;20195;-83
2023/04/09 07:24:09;;;;;;;23.27;12.00;;;;;;;-145.69;100.00;52474.09;5080559;28;20198;-82
2023/04/09 07:26:36;;;;;;;21.53;11.57;;;;;;;-145.69;100.00;52448.34;5080720;28;20293;-83
2023/04/09 07:29:04;;;;;;;24.10;12.67;;;;;;;-145.69;100.00;52440.44;5080412;28;20199;-83
2023/04/09 07:31:31;;;;;;;21.57;12.20;;;;;;;-145.69;100.00;52458.25;5081501;28;20202;-84
2023/04/09 07:33:58;;;;;;;21.10;11.03;;;;;;;-145.69;100.00;52462.22;5080105;28;20228;-84
2023/04/09 07:36:24;;;;;;;24.13;12.90;;;;;;;-145.69;100.00;52440.44;5077735;28;20209;-85
2023/04/09 07:38:51;;;;;;;19.60;10.67;;;;;;;-145.69;100.00;52497.84;5078815;28;20248;-83
2023/04/09 07:41:17;;;;;;;20.77;10.83;;;;;;;-145.69;100.00;52472.13;5078853;28;20195;-83
2023/04/09 07:43:44;;;;;;;23.67;11.70;;;;;;;-145.69;100.00;52448.34;5080124;28;20698;-83
2023/04/09 07:46:17;;;;;;;21.77;11.80;;;;;;;-145.69;100.00;52472.13;5078482;28;20203;-82
2023/04/09 07:48:44;;;;;;;18.87;10.00;;;;;;;-145.69;100.00;52446.38;5081274;28;20206;-83
2023/04/09 07:51:11;;;;;;;19.67;11.07;;;;;;;-145.69;100.00;52462.22;5076460;28;20199;-82
2023/04/09 07:53:37;;;;;;;18.50;10.53;;;;;;;-145.69;100.00;52466.16;5076367;28;20209;-84
2023/04/09 07:56:05;;;;;;;17.07;9.47;;;;;;;-145.69;100.00;52452.31;5079253;28;20557;-82
2023/04/09 07:58:31;;;;;;;16.63;9.03;;;;;;;-145.69;100.00;52428.53;5076726;28;20199;-84
2023/04/09 08:00:58;;;;;;;15.40;8.80;;;;;;;-145.69;100.00;52468.16;5079702;28;20210;-83
2023/04/09 08:03:25;;;;;;;15.33;8.13;;;;;;;-145.69;100.00;52440.44;5078689;28;20229;-84
2023/04/09 08:05:52;;;;;;;15.07;8.57;;;;;;;-145.69;100.00;52474.09;5078442;28;20206;-83
2023/04/09 08:08:19;;;;;;;13.00;7.83;;;;;;;-145.69;100.00;52464.19;5077499;28;20211;-84
2023/04/09 08:10:45;;;;;;;13.17;7.50;;;;;;;-145.69;97.39;52424.59;5074348;28;20600;-82
2023/04/09 08:13:12;;;;;;;14.10;8.33;;;;;;;-145.69;94.95;52428.53;5075181;28;20645;-83
2023/04/09 08:15:38;;;;;;;13.03;8.00;;;;;;;-145.69;89.41;52420.63;5073557;28;20688;-82
2023/04/09 08:18:05;;;;;;;12.77;7.40;;;;;;;-145.69;90.35;52430.53;5077686;28;20234;-83
2023/04/09 08:20:32;;;;;;;11.87;7.20;;;;;;;-145.69;89.48;52428.53;5080338;28;20196;-83
2023/04/09 08:22:59;;;;;;;13.50;8.27;;;;;;;-145.69;94.90;52446.38;5082198;28;20317;-84
2023/04/09 08:25:29;;;;;;;11.43;7.37;;;;;;;-145.69;86.71;52444.38;5082268;28;20268;-84
2023/04/09 08:28:01;;;;;;;10.67;6.60;;;;;;;-145.69;77.74;52392.91;5082376;28;20206;-82
2023/04/09 08:30:28;;;;;;;10.87;5.73;;;;;;;-145.69;78.29;52444.38;5082840;28;20198;-83
2023/04/09 08:32:54;;;;;;;9.20;5.90;;;;;;;-145.69;79.83;52416.66;5059209;28;20199;-83
2023/04/09 08:35:21;;;;;;;9.57;5.30;;;;;;;-145.69;77.39;52408.75;5057510;28;20206;-81
2023/04/09 08:37:52;;;;;;;9.70;5.27;;;;;;;-145.69;71.64;52416.66;5053860;28;20246;-82
2023/04/09 08:40:18;;;;;;;9.73;6.33;;;;;;;-145.69;75.57;52408.75;5054085;28;20609;-82
2023/04/09 08:42:45;;;;;;;8.13;5.40;;;;;;;-145.69;73.14;52404.78;5054224;28;20752;-82
2023/04/09 08:45:13;;;;;;;8.50;5.07;;;;;;;-145.69;71.23;52414.69;5069426;28;20234;-82
2023/04/09 08:47:46;;;;;;;7.93;4.70;;;;;;;-145.69;69.48;52392.91;5077351;28;20199;-81
2023/04/09 08:50:15;;;;;;;9.17;5.33;;;;;;;-145.69;68.40;52436.47;5076289;28;20564;-81
2023/04/09 08:52:42;;;;;;;8.33;5.23;;;;;;;-145.69;69.08;52420.63;5077825;28;20252;-82
2023/04/09 08:55:13;;;;;;;6.77;4.77;;;;;;;-145.69;69.04;52424.59;5076764;28;20707;-82
2023/04/09 08:57:41;;;;;;;8.43;5.40;;;;;;;-145.69;70.78;52400.81;5074964;28;20565;-82
2023/04/09 09:00:11;;;;;;;8.40;5.33;;;;;;;-145.69;75.50;52377.06;5076347;28;20259;-82
2023/04/09 09:02:58;;;;;;;8.50;5.53;;;;;;;-145.69;64.58;52414.69;5077236;28;20226;-82
2023/04/09 09:05:36;;;;;;;10.43;5.50;;;;;;;-145.69;63.99;52392.91;5077276;28;20202;-82
2023/04/09 09:08:05;;;;;;;8.43;6.05;;;;;;;-145.69;71.65;52444.38;5075260;28;20441;-82
2023/04/09 09:10:42;;;;;;;8.50;5.67;;;;;;;-145.69;62.64;52430.53;5076756;28;20553;-82
2023/04/09 09:13:20;;;;;;;8.90;5.53;;;;;;;-145.69;70.77;52400.81;5077555;28;20229;-81
2023/04/09 09:15:52;;;;;;;8.47;5.30;;;;;;;-145.69;61.11;52420.63;5078662;28;20202;-82
2023/04/09 09:18:39;;;;;;;8.63;5.50;;;;;;;-145.69;67.70;52420.63;5081336;28;20653;-82
2023/04/09 09:21:11;;;;;;;10.40;5.40;;;;;;;-145.69;65.70;52388.94;5080777;28;20194;-82
2023/04/09 09:23:42;;;;;;;8.37;5.37;;;;;;;-145.69;66.48;52383.00;5082436;28;20222;-82
2023/04/09 09:26:17;;;;;;;8.03;5.27;;;;;;;-145.69;66.60;52404.78;5086759;28;20206;-82
2023/04/09 09:28:44;;;;;;;9.40;5.33;;;;;;;-145.69;60.71;52384.97;5084983;28;20208;-82
2023/04/09 09:31:12;;;;;;;7.90;5.43;;;;;;;-145.69;58.43;52371.13;5085081;28;20205;-81
2023/04/09 09:33:39;;;;;;;8.70;5.07;;;;;;;-145.69;65.77;52381.00;5085939;28;20270;-82
2023/04/09 09:36:08;;;;;;;7.77;4.73;;;;;;;-145.69;66.77;52365.16;5085229;28;20201;-83
2023/04/09 09:38:43;;;;;;;10.27;5.80;;;;;;;-145.69;64.50;52386.97;5086956;28;20268;-82
2023/04/09 09:41:18;;;;;;;7.27;4.80;;;;;;;-145.69;66.79;52394.88;5086960;28;20286;-82
2023/04/09 09:43:45;;;;;;;9.77;5.70;;;;;;;-145.69;68.73;52373.09;5082425;28;20250;-83
2023/04/09 09:46:12;;;;;;;9.17;5.93;;;;;;;-145.69;73.30;52377.06;5085079;28;20206;-83
2023/04/09 09:48:38;;;;;;;9.57;5.80;;;;;;;-145.69;73.23;52396.84;5086051;28;20562;-83
2023/04/09 09:51:09;;;;;;;10.23;6.33;;;;;;;-145.69;72.68;52404.78;5087088;28;20198;-83
2023/04/09 09:53:36;;;;;;;12.00;7.17;;;;;;;-145.69;75.18;52392.91;5086980;28;20209;-83
2023/04/09 09:56:04;;;;;;;11.07;6.63;;;;;;;-145.69;83.70;52367.16;5085704;28;20225;-83
2023/04/09 09:58:38;;;;;;;11.07;6.90;;;;;;;-145.69;77.57;52404.78;5084091;28;20203;-83
2023/04/09 10:01:08;;;;;;;13.27;7.17;;;;;;;-145.69;79.17;52388.94;5085779;28;20217;-83
2023/04/09 10:03:36;;;;;;;10.87;6.37;;;;;;;-145.69;79.32;52408.75;5086519;28;20237;-83
2023/04/09 10:06:06;;;;;;;11.50;6.37;;;;;;;-145.69;71.75;52416.66;5087300;28;20198;-83
2023/04/09 10:08:36;;;;;;;12.77;6.73;;;;;;;-145.69;76.17;52400.81;5086810;28;20225;-83
2023/04/09 10:11:04;;;;;;;10.13;6.10;;;;;;;-145.69;72.11;52377.06;5081089;28;20203;-82
2023/04/09 10:13:35;;;;;;;9.93;6.40;;;;;;;-145.69;75.87;52404.78;5075857;28;20308;-80
2023/04/09 10:16:04;;;;;;;11.50;6.87;;;;;;;-145.69;71.50;52384.97;5073525;28;20658;-82
2023/04/09 10:18:32;;;;;;;11.10;6.60;;;;;;;-145.69;72.79;52377.06;5076363;28;20222;-80
2023/04/09 10:21:03;;;;;;;9.47;6.47;;;;;;;-145.69;70.26;52422.59;5076100;28;20203;-83
2023/04/09 10:23:36;;;;;;;11.23;6.50;;;;;;;-145.69;72.41;52367.16;5058479;28;20227;-82
2023/04/09 10:26:03;;;;;;;10.40;6.40;;;;;;;-145.69;73.00;52377.06;5055170;28;20210;-82
2023/04/09 10:28:30;;;;;;;12.10;7.00;;;;;;;-145.69;70.42;52349.31;5055528;28;20290;-83
2023/04/09 10:31:01;;;;;;;8.83;5.90;;;;;;;-145.69;70.95;52379.03;5075674;28;20195;-82
2023/04/09 10:33:30;;;;;;;11.13;7.20;;;;;;;-145.69;76.29;52371.13;5076551;28;20207;-83
2023/04/09 10:36:01;;;;;;;13.23;7.50;;;;;;;-145.69;73.63;52369.13;5076627;28;20610;-83
2023/04/09 10:38:36;;;;;;;13.17;7.27;;;;;;;-145.69;71.48;52365.16;5076785;28;20552;-83
2023/04/09 10:41:14;;;;;;;10.83;7.00;;;;;;;-145.69;76.32;52394.88;5075577;28;20203;-82
2023/04/09 10:43:41;;;;;;;12.27;7.37;;;;;;;-145.69;75.58;52357.25;5075483;28;20245;-82
2023/04/09 10:46:27;;;;;;;11.33;7.40;;;;;;;-145.69;77.05;52381.00;5074413;28;20206;-83
2023/04/09 10:49:12;;;;;;;11.97;7.53;;;;;;;-145.69;77.52;52384.97;5062320;28;20203;-83
2023/04/09 10:51:39;;;;;;;11.37;6.93;;;;;;;-145.69;72.91;52394.88;5068363;28;20199;-79
2023/04/09 10:54:06;;;;;;;10.63;6.93;;;;;;;-145.69;71.39;52386.97;5069581;28;20210;-80
2023/04/09 10:56:33;;;;;;;13.20;7.13;;;;;;;-145.69;69.39;52384.97;5062516;28;20202;-81
2023/04/09 10:59:00;;;;;;;12.47;6.93;;;;;;;-145.69;69.83;52377.06;5051763;28;20198;-81
2023/04/09 11:01:27;;;;;;;13.30;7.23;;;;;;;-145.69;68.60;52408.75;5061192;28;20252;-79
2023/04/09 11:04:08;;;;;;;12.57;7.60;;;;;;;-145.69;64.18;52383.00;5056012;28;20230;-80